Time;durP1;ratioP1;P1;durP2;ratioP2;P2;SDS_P1;SDS_P2;PMS_P1;PMS_P2;Temp;Humidity;BMP_temperature;BMP_pressure;BME280_temperature;BME280_humidity;BME280_pressure;Samples;Min_cycle;Max_cycle;Signal;HPM_P1;HPM_P2
2021/05/18 00:03:18;;;;;;;22.30;8.53;;;;;10.10;100526.00;;;;10467056;28;20243;-77
2021/05/18 00:08:23;;;;;;;17.27;8.67;;;;;10.10;100524.00;;;;10483264;28;20218;-76
2021/05/18 00:13:28;;;;;;;14.70;7.97;;;;;10.10;100531.00;;;;10500355;28;20230;-77
2021/05/18 00:18:30;;;;;;;19.27;9.47;;;;;10.10;100526.00;;;;10483030;28;20205;-77
2021/05/18 00:23:34;;;;;;;21.33;8.60;;;;;10.10;100539.00;;;;10484317;28;20217;-77
2021/05/18 00:28:37;;;;;;;26.17;8.83;;;;;10.10;100543.00;;;;10523960;28;20713;-77
2021/05/18 00:33:42;;;;;;;20.43;8.30;;;;;10.10;100537.00;;;;10474477;28;20208;-77
2021/05/18 00:38:44;;;;;;;17.23;8.80;;;;;10.00;100534.00;;;;10507795;28;20382;-77
2021/05/18 00:43:46;;;;;;;21.70;9.30;;;;;10.00;100536.00;;;;10506631;28;20196;-77
2021/05/18 00:48:57;;;;;;;22.10;10.57;;;;;10.00;100541.00;;;;10473737;28;20682;-76
2021/05/18 00:54:17;;;;;;;27.00;11.50;;;;;10.00;100530.00;;;;10517499;28;20217;-77
2021/05/18 00:59:21;;;;;;;24.77;11.73;;;;;10.00;100544.00;;;;10522808;28;20235;-77
2021/05/18 01:04:24;;;;;;;24.57;12.07;;;;;10.10;100536.00;;;;10489007;28;20216;-75
2021/05/18 01:09:26;;;;;;;27.53;9.63;;;;;10.10;100534.00;;;;10504602;28;21077;-75
2021/05/18 01:14:28;;;;;;;25.10;10.33;;;;;10.10;100530.00;;;;10504374;28;20216;-76
2021/05/18 01:19:31;;;;;;;22.57;9.67;;;;;10.10;100537.00;;;;10471472;28;20204;-76
2021/05/18 01:24:34;;;;;;;20.87;10.33;;;;;10.10;100539.00;;;;10470070;28;20262;-75
2021/05/18 01:29:36;;;;;;;25.33;10.33;;;;;10.20;100547.00;;;;10495696;28;20262;-75
2021/05/18 01:34:38;;;;;;;23.97;10.50;;;;;10.20;100550.00;;;;10529703;28;20262;-75
2021/05/18 01:45:10;;;;;;;23.80;11.87;;;;;10.10;100554.00;;;;10512212;28;20655;-75
2021/05/18 01:50:13;;;;;;;19.77;9.63;;;;;10.10;100552.00;;;;10512993;28;20192;-75
2021/05/18 01:55:22;;;;;;;21.00;11.67;;;;;10.10;100561.00;;;;10494945;28;20216;-75
2021/05/18 02:00:27;;;;;;;32.33;13.47;;;;;10.10;100553.00;;;;10511738;28;20238;-75
2021/05/18 02:05:41;;;;;;;29.43;13.73;;;;;10.10;100554.00;;;;10496127;28;20219;-75
2021/05/18 02:11:02;;;;;;;34.43;13.67;;;;;10.10;100561.00;;;;10513787;28;20200;-75
2021/05/18 02:16:11;;;;;;;25.63;10.60;;;;;10.10;100568.00;;;;10528137;28;20262;-75
2021/05/18 02:26:22;;;;;;;35.67;12.53;;;;;10.20;100580.00;;;;10510495;28;20193;-75
2021/05/18 02:31:30;;;;;;;31.67;12.10;;;;;10.20;100573.00;;;;10495307;28;20263;-75
2021/05/18 02:36:52;;;;;;;25.60;11.33;;;;;10.10;100574.00;;;;10526040;28;20211;-75
2021/05/18 02:41:54;;;;;;;32.87;12.33;;;;;10.10;100578.00;;;;10527288;28;20201;-75
2021/05/18 02:52:26;;;;;;;27.80;11.40;;;;;10.00;100599.00;;;;10509906;28;20656;-75
2021/05/18 02:57:36;;;;;;;21.57;11.20;;;;;9.90;100586.00;;;;10492935;28;20205;-75
2021/05/18 03:02:39;;;;;;;31.33;11.70;;;;;9.90;100601.00;;;;10526700;28;20749;-75
2021/05/18 03:07:41;;;;;;;31.53;12.57;;;;;9.90;100597.00;;;;10526199;28;20288;-75
2021/05/18 03:12:43;;;;;;;27.07;13.83;;;;;10.00;100597.00;;;;10475365;28;20189;-75
2021/05/18 03:17:45;;;;;;;31.00;14.07;;;;;10.00;100593.00;;;;10491903;28;20691;-75
2021/05/18 03:22:47;;;;;;;31.57;14.33;;;;;10.00;100597.00;;;;10509001;28;20197;-75
2021/05/18 03:27:51;;;;;;;38.20;14.70;;;;;9.90;100603.00;;;;10478226;28;20587;-75
2021/05/18 03:38:59;;;;;;;30.37;13.90;;;;;9.80;100603.00;;;;10483665;28;20233;-77
2021/05/18 04:04:25;;;;;;;29.00;13.57;;;;;9.80;100625.00;;;;10490681;28;20192;-77
2021/05/18 04:41:37;;;;;;;24.97;10.73;;;;;10.20;100644.00;;;;10488992;28;20185;-76
2021/05/18 04:52:10;;;;;;;25.80;11.47;;;;;10.30;100662.00;;;;10478475;28;20726;-75
2021/05/18 05:08:07;;;;;;;25.20;10.40;;;;;10.60;100668.00;;;;10463031;28;20688;-75
2021/05/18 05:18:14;;;;;;;23.13;11.73;;;;;11.00;100675.00;;;;10479635;28;20327;-75
2021/05/18 05:23:16;;;;;;;24.73;12.47;;;;;11.20;100693.00;;;;10462908;28;20217;-75
2021/05/18 05:28:18;;;;;;;24.37;11.07;;;;;11.30;100691.00;;;;10501436;28;20197;-75
2021/05/18 05:33:19;;;;;;;20.67;9.57;;;;;11.30;100701.00;;;;10462814;28;20194;-76
2021/05/18 05:38:23;;;;;;;25.00;11.00;;;;;11.40;100695.00;;;;10463263;28;20699;-76
2021/05/18 05:43:25;;;;;;;28.80;11.63;;;;;11.60;100708.00;;;;10462559;28;20227;-76
2021/05/18 05:48:27;;;;;;;18.87;10.03;;;;;11.80;100727.00;;;;10495707;28;20236;-75
2021/05/18 05:53:29;;;;;;;21.40;8.20;;;;;12.10;100731.00;;;;10462804;28;20656;-75
2021/05/18 05:58:31;;;;;;;17.43;8.00;;;;;12.90;100742.00;;;;10503641;28;20228;-76
2021/05/18 06:03:33;;;;;;;20.10;8.00;;;;;13.00;100750.00;;;;10487225;28;20239;-75
2021/05/18 06:08:42;;;;;;;17.27;7.23;;;;;13.00;100759.00;;;;10503323;28;20209;-75
2021/05/18 06:34:00;;;;;;;14.70;7.30;;;;;12.30;100785.00;;;;10527813;28;20192;-75
2021/05/18 06:51:08;;;;;;;9.83;5.27;;;;;12.30;100797.00;;;;10527351;28;20230;-76
2021/05/18 06:56:09;;;;;;;13.07;6.53;;;;;13.20;100799.00;;;;10476746;28;20236;-76
2021/05/18 07:01:12;;;;;;;10.43;5.97;;;;;13.90;100802.00;;;;10509640;28;20271;-76
2021/05/18 07:06:36;;;;;;;13.50;6.33;;;;;13.90;100811.00;;;;10525961;28;20248;-76
2021/05/18 07:11:38;;;;;;;8.60;5.83;;;;;13.20;100817.00;;;;10509552;28;20195;-76
2021/05/18 07:16:41;;;;;;;11.47;5.50;;;;;12.90;100816.00;;;;10509290;28;20209;-76
2021/05/18 07:21:43;;;;;;;10.57;4.97;;;;;12.70;100826.00;;;;10520599;28;20236;-76
2021/05/18 07:26:45;;;;;;;8.33;5.90;;;;;12.80;100832.00;;;;10482939;28;20691;-75
2021/05/18 07:31:47;;;;;;;10.10;5.67;;;;;13.00;100820.00;;;;10450665;28;20220;-75
2021/05/18 07:36:49;;;;;;;10.87;5.77;;;;;13.40;100823.00;;;;10466412;28;20264;-75
2021/05/18 07:41:51;;;;;;;10.80;6.47;;;;;13.50;100826.00;;;;10482727;28;20194;-75
2021/05/18 07:46:53;;;;;;;12.03;7.00;;;;;14.10;100821.00;;;;10465972;28;20209;-75
2021/05/18 08:08:11;;;;;;;9.23;5.77;;;;;15.00;100819.00;;;;10507905;28;20220;-75
2021/05/18 08:13:14;;;;;;;13.87;7.13;;;;;14.90;100824.00;;;;10523470;28;20198;-75
2021/05/18 08:56:18;;;;;;;6.88;5.55;;;;;18.70;100777.00;;;;10486239;28;20644;-76
2021/05/18 09:34:49;;;;;;;5.38;2.53;;;;;18.40;100731.00;;;;10506071;28;20219;-75
2021/05/18 10:37:58;;;;;;;3.05;2.00;;;;;22.10;100693.00;;;;10494793;28;20239;-76
2021/05/18 10:43:04;;;;;;;1.60;1.45;;;;;21.40;100708.00;;;;10477700;28;20204;-76
2021/05/18 10:48:07;;;;;;;3.63;1.60;;;;;20.10;100700.00;;;;10493434;28;20193;-76
2021/05/18 10:53:29;;;;;;;2.65;1.80;;;;;21.30;100703.00;;;;10510747;28;20199;-76
2021/05/18 10:58:31;;;;;;;2.33;1.85;;;;;22.80;100699.00;;;;10500529;28;20221;-74
2021/05/18 11:03:34;;;;;;;3.55;1.70;;;;;24.40;100705.00;;;;10468000;28;20201;-76
2021/05/18 11:08:36;;;;;;;2.53;1.67;;;;;22.10;100705.00;;;;10468412;28;20213;-74
2021/05/18 11:13:38;;;;;;;6.80;2.00;;;;;22.10;100689.00;;;;10484209;28;20251;-76
2021/05/18 11:18:47;;;;;;;1.85;1.48;;;;;23.00;100690.00;;;;10467110;28;20245;-74
2021/05/18 11:23:49;;;;;;;4.90;1.70;;;;;24.00;100712.00;;;;10475507;28;20235;-75
2021/05/18 11:28:52;;;;;;;2.15;1.55;;;;;23.00;100718.00;;;;10450568;28;20248;-74
2021/05/18 11:33:58;;;;;;;2.83;1.60;;;;;23.80;100715.00;;;;10467462;28;20205;-76
2021/05/18 11:39:07;;;;;;;2.25;1.90;;;;;22.70;100710.00;;;;10483309;28;20233;-76
2021/05/18 11:44:11;;;;;;;2.17;1.73;;;;;21.00;100719.00;;;;10449684;28;20723;-76
2021/05/18 11:49:14;;;;;;;2.78;1.80;;;;;20.20;100717.00;;;;10502303;28;20555;-76
2021/05/18 11:54:19;;;;;;;3.17;1.60;;;;;21.10;100711.00;;;;10472893;28;20213;-76
2021/05/18 11:59:23;;;;;;;2.85;1.58;;;;;23.10;100706.00;;;;10513845;28;20205;-76
2021/05/18 12:04:28;;;;;;;3.38;1.33;;;;;24.00;100709.00;;;;10476929;28;20714;-74
2021/05/18 12:09:33;;;;;;;3.40;1.58;;;;;25.90;100705.00;;;;10495475;28;20765;-74
2021/05/18 12:14:44;;;;;;;1.70;1.38;;;;;25.40;100714.00;;;;10498818;28;20166;-74
2021/05/18 12:19:45;;;;;;;1.55;1.02;;;;;21.80;100725.00;;;;10506395;28;20203;-74
2021/05/18 12:24:47;;;;;;;5.13;1.40;;;;;19.90;100726.00;;;;10491735;28;20204;-76
2021/05/18 12:29:51;;;;;;;2.50;1.48;;;;;19.40;100732.00;;;;10499464;28;20203;-76
2021/05/18 12:34:58;;;;;;;1.75;1.27;;;;;19.30;100724.00;;;;10539296;28;20401;-76
2021/05/18 12:40:06;;;;;;;4.50;1.42;;;;;18.60;100720.00;;;;10523055;28;20189;-76
2021/05/18 12:45:21;;;;;;;2.20;1.10;;;;;18.20;100736.00;;;;10507587;28;20201;-76
2021/05/18 12:50:34;;;;;;;3.65;1.85;;;;;20.60;100740.00;;;;10485913;28;20683;-76
2021/05/18 12:55:40;;;;;;;2.45;1.00;;;;;21.00;100732.00;;;;10494426;28;20217;-76
2021/05/18 13:00:44;;;;;;;1.98;1.35;;;;;19.50;100739.00;;;;10463694;28;20244;-76
2021/05/18 13:05:52;;;;;;;8.88;1.40;;;;;21.80;100737.00;;;;10450670;28;20213;-76
2021/05/18 13:16:35;;;;;;;2.10;1.00;;;;;19.60;100735.00;;;;10505638;28;20212;-77
2021/05/18 13:21:55;;;;;;;1.98;1.40;;;;;22.40;100728.00;;;;10483122;28;20197;-76
2021/05/18 13:26:57;;;;;;;2.10;0.98;;;;;24.80;100731.00;;;;10504755;28;20651;-75
2021/05/18 13:31:59;;;;;;;1.50;1.00;;;;;24.10;100740.00;;;;10520784;28;20276;-75
2021/05/18 13:37:16;;;;;;;2.30;1.00;;;;;26.90;100731.00;;;;10480977;28;20676;-75
2021/05/18 13:42:25;;;;;;;2.47;1.10;;;;;28.40;100735.00;;;;10496146;28;20211;-75
2021/05/18 13:47:27;;;;;;;1.67;1.10;;;;;27.10;100727.00;;;;10478961;28;20208;-75
2021/05/18 13:52:28;;;;;;;8.38;3.08;;;;;28.30;100739.00;;;;10466008;28;20196;-75
2021/05/18 13:57:30;;;;;;;3.17;1.55;;;;;29.00;100731.00;;;;10479168;28;20209;-75
2021/05/18 14:02:32;;;;;;;3.17;1.48;;;;;29.30;100729.00;;;;10481784;28;20204;-75
2021/05/18 14:13:22;;;;;;;1.88;0.95;;;;;23.00;100742.00;;;;10496868;28;20243;-75
2021/05/18 14:18:24;;;;;;;0.93;0.80;;;;;27.60;100722.00;;;;10478726;28;20291;-75
2021/05/18 14:23:28;;;;;;;2.33;0.88;;;;;29.10;100727.00;;;;10462045;28;20190;-76
2021/05/18 14:28:30;;;;;;;1.35;0.90;;;;;25.80;100728.00;;;;10519938;28;20269;-76
2021/05/18 14:33:33;;;;;;;2.60;0.90;;;;;24.00;100738.00;;;;10539844;28;20193;-76
2021/05/18 14:38:36;;;;;;;1.15;0.90;;;;;29.30;100729.00;;;;10489816;28;20213;-76
2021/05/18 14:59:16;;;;;;;1.63;0.90;;;;;31.90;100730.00;;;;10506136;28;20778;-76
2021/05/18 15:04:18;;;;;;;2.60;0.93;;;;;31.80;100732.00;;;;10509834;28;20596;-76
2021/05/18 15:09:20;;;;;;;2.17;1.02;;;;;31.70;100731.00;;;;10525644;28;20216;-76
2021/05/18 15:14:22;;;;;;;1.42;0.70;;;;;33.30;100726.00;;;;10525767;28;20272;-76
2021/05/18 15:19:26;;;;;;;1.20;1.02;;;;;33.10;100745.00;;;;10528697;28;20217;-74
2021/05/18 15:24:29;;;;;;;1.63;1.00;;;;;32.30;100733.00;;;;10525033;28;20251;-75
2021/05/18 15:29:31;;;;;;;1.77;0.95;;;;;29.10;100733.00;;;;10525239;28;20192;-75
2021/05/18 15:34:35;;;;;;;1.75;0.93;;;;;30.70;100729.00;;;;10508637;28;20201;-75
2021/05/18 15:39:37;;;;;;;1.52;1.10;;;;;31.80;100744.00;;;;10483954;28;20336;-75
2021/05/18 15:44:39;;;;;;;1.52;0.93;;;;;31.30;100758.00;;;;10475722;28;20210;-76
2021/05/18 15:49:41;;;;;;;2.40;1.17;;;;;30.50;100750.00;;;;10507634;28;20224;-75
2021/05/18 15:54:43;;;;;;;1.40;1.05;;;;;31.20;100753.00;;;;10498023;28;20193;-76
2021/05/18 15:59:48;;;;;;;3.00;1.20;;;;;26.20;100767.00;;;;10482778;28;20568;-76
2021/05/18 16:04:50;;;;;;;2.75;1.23;;;;;25.30;100774.00;;;;10493020;28;20295;-75
2021/05/18 16:09:52;;;;;;;2.78;1.20;;;;;23.00;100773.00;;;;10481048;28;20652;-75
2021/05/18 16:14:55;;;;;;;1.15;1.05;;;;;21.50;100779.00;;;;10507449;28;20528;-75
2021/05/18 16:19:57;;;;;;;2.63;1.23;;;;;19.70;100785.00;;;;10506404;28;20209;-75
2021/05/18 16:24:59;;;;;;;3.17;1.50;;;;;18.80;100790.00;;;;10540788;28;20200;-76
2021/05/18 16:30:01;;;;;;;2.47;1.40;;;;;18.50;100789.00;;;;10486249;28;20663;-77
2021/05/18 16:35:04;;;;;;;1.33;1.23;;;;;19.00;100786.00;;;;10480409;28;20284;-76
2021/05/18 16:40:07;;;;;;;7.20;1.83;;;;;18.90;100790.00;;;;10460536;28;20213;-76
2021/05/18 16:45:10;;;;;;;1.55;1.27;;;;;18.10;100785.00;;;;10505493;28;20208;-77
2021/05/18 16:50:19;;;;;;;1.42;1.33;;;;;17.80;100785.00;;;;10490995;28;20185;-77
2021/05/18 16:55:21;;;;;;;4.63;1.42;;;;;17.90;100778.00;;;;10497016;28;20222;-75
2021/05/18 17:00:23;;;;;;;1.48;1.10;;;;;18.20;100781.00;;;;10494887;28;20217;-76
2021/05/18 17:05:26;;;;;;;3.47;1.70;;;;;18.00;100787.00;;;;10490816;28;20350;-76
2021/05/18 17:10:28;;;;;;;1.30;1.20;;;;;17.80;100792.00;;;;10502891;28;20199;-76
2021/05/18 17:15:30;;;;;;;2.50;1.33;;;;;17.40;100792.00;;;;10463379;28;20193;-75
2021/05/18 17:20:35;;;;;;;2.05;1.50;;;;;17.10;100791.00;;;;10492038;28;20245;-75
2021/05/18 17:25:37;;;;;;;1.98;1.60;;;;;16.90;100796.00;;;;10523273;28;20208;-76
2021/05/18 17:30:39;;;;;;;3.90;1.73;;;;;16.80;100806.00;;;;10508685;28;20255;-75
2021/05/18 17:35:41;;;;;;;3.75;2.50;;;;;16.80;100807.00;;;;10521744;28;20228;-76
2021/05/18 17:40:44;;;;;;;7.22;3.97;;;;;16.90;100809.00;;;;10493218;28;20201;-76
2021/05/18 17:45:46;;;;;;;2.50;2.28;;;;;16.80;100820.00;;;;10462566;28;20259;-76
2021/05/18 17:50:49;;;;;;;2.35;1.73;;;;;16.70;100827.00;;;;10480190;28;20212;-76
2021/05/18 17:55:51;;;;;;;4.15;1.92;;;;;16.30;100828.00;;;;10482627;28;20201;-76
2021/05/18 18:00:53;;;;;;;4.33;1.80;;;;;16.00;100832.00;;;;10487200;28;20196;-76
2021/05/18 18:05:55;;;;;;;4.07;1.17;;;;;15.80;100838.00;;;;10520305;28;20255;-76
2021/05/18 18:10:57;;;;;;;3.07;1.40;;;;;15.60;100838.00;;;;10498572;28;20201;-76
2021/05/18 18:16:07;;;;;;;2.40;1.50;;;;;15.60;100844.00;;;;10475052;28;20303;-76
2021/05/18 18:21:10;;;;;;;2.83;1.43;;;;;15.50;100854.00;;;;10494833;28;20193;-76
2021/05/18 18:26:13;;;;;;;2.30;1.70;;;;;15.30;100846.00;;;;10510919;28;20207;-76
2021/05/18 18:31:15;;;;;;;2.77;1.60;;;;;15.20;100863.00;;;;10545556;28;20231;-76
2021/05/18 18:36:17;;;;;;;4.43;1.30;;;;;15.10;100857.00;;;;10477712;28;20207;-75
2021/05/18 18:41:19;;;;;;;3.30;1.20;;;;;15.00;100871.00;;;;10494234;28;20197;-76
2021/05/18 18:46:21;;;;;;;3.77;2.43;;;;;14.80;100877.00;;;;10466566;28;20193;-75
2021/05/18 18:51:26;;;;;;;3.13;2.30;;;;;14.70;100894.00;;;;10527484;28;20196;-75
2021/05/18 18:56:28;;;;;;;5.63;3.83;;;;;14.40;100915.00;;;;10499679;28;20209;-76
2021/05/18 19:01:36;;;;;;;5.00;3.60;;;;;13.80;100935.00;;;;10545362;28;20551;-76
2021/05/18 19:06:47;;;;;;;4.30;3.70;;;;;12.90;100966.00;;;;10526193;28;20213;-76
2021/05/18 19:12:39;;;;;;;5.47;4.13;;;;;12.10;100985.00;;;;10510306;28;20220;-76
2021/05/18 19:17:16;;;;;;;4.90;3.73;;;;;11.60;101010.00;;;;10493023;28;20216;-75
2021/05/18 19:22:18;;;;;;;5.47;4.97;;;;;11.20;101023.00;;;;10524576;28;20648;-74
2021/05/18 19:27:21;;;;;;;9.97;5.03;;;;;11.10;101045.00;;;;10544374;28;20189;-74
2021/05/18 19:32:23;;;;;;;7.50;6.03;;;;;11.00;101062.00;;;;10509747;28;20197;-74
2021/05/18 19:37:33;;;;;;;5.40;4.67;;;;;10.90;101071.00;;;;10508924;28;20209;-75
2021/05/18 19:53:09;;;;;;;3.63;2.00;;;;;10.40;101048.00;;;;10508670;28;20192;-76
2021/05/18 19:58:46;;;;;;;1.57;1.40;;;;;10.10;101048.00;;;;10521552;28;20221;-76
2021/05/18 20:24:27;;;;;;;3.03;1.33;;;;;9.80;101099.00;;;;10464622;28;20200;-75
2021/05/18 20:29:29;;;;;;;1.50;1.40;;;;;9.90;101088.00;;;;10461702;28;20190;-74
2021/05/18 20:34:53;;;;;;;2.20;1.87;;;;;9.90;101105.00;;;;10463889;28;20194;-74
2021/05/18 20:39:55;;;;;;;1.67;1.53;;;;;10.00;101110.00;;;;10463555;28;20213;-74
2021/05/18 20:44:59;;;;;;;2.63;1.70;;;;;10.00;101105.00;;;;10480563;28;20201;-74
2021/05/18 20:50:06;;;;;;;2.10;1.80;;;;;10.00;101110.00;;;;10479861;28;20193;-76
2021/05/18 20:55:11;;;;;;;1.70;1.60;;;;;9.90;101118.00;;;;10494363;28;20648;-76
2021/05/18 21:00:14;;;;;;;2.17;1.73;;;;;9.70;101109.00;;;;10505169;28;20208;-77
2021/05/18 21:05:19;;;;;;;3.27;2.37;;;;;9.50;101128.00;;;;10488660;28;20217;-76
2021/05/18 21:10:28;;;;;;;4.73;3.20;;;;;9.40;101132.00;;;;10504725;28;20192;-76
2021/05/18 21:15:49;;;;;;;4.47;3.00;;;;;9.40;101134.00;;;;10504624;28;20224;-75
2021/05/18 21:20:53;;;;;;;2.77;2.57;;;;;9.40;101134.00;;;;10488485;28;20205;-75
2021/05/18 21:25:56;;;;;;;5.20;2.77;;;;;9.40;101130.00;;;;10488107;28;20709;-75
2021/05/18 21:30:58;;;;;;;2.83;2.03;;;;;9.40;101133.00;;;;10487655;28;20242;-75
2021/05/18 21:35:59;;;;;;;3.80;2.20;;;;;9.30;101126.00;;;;10471636;28;20622;-75
2021/05/18 21:41:04;;;;;;;3.83;3.10;;;;;9.30;101129.00;;;;10521772;28;20254;-75
2021/05/18 21:46:07;;;;;;;2.47;2.27;;;;;9.20;101128.00;;;;10511724;28;20212;-74
2021/05/18 21:51:08;;;;;;;3.47;2.43;;;;;9.20;101130.00;;;;10496278;28;20659;-75
2021/05/18 21:56:10;;;;;;;3.07;2.40;;;;;9.10;101125.00;;;;10529241;28;20200;-74
2021/05/18 22:01:12;;;;;;;3.80;2.50;;;;;9.10;101129.00;;;;10513436;28;20196;-75
2021/05/18 22:06:14;;;;;;;3.73;2.57;;;;;9.10;101132.00;;;;10512570;28;20714;-75
2021/05/18 22:26:57;;;;;;;4.40;2.57;;;;;8.70;101126.00;;;;10512182;28;20651;-75
2021/05/18 22:32:00;;;;;;;4.77;3.43;;;;;8.70;101123.00;;;;10494661;28;20652;-75
2021/05/18 22:37:02;;;;;;;4.03;3.47;;;;;8.60;101126.00;;;;10478096;28;20731;-75
2021/05/18 22:42:05;;;;;;;4.93;3.03;;;;;8.60;101129.00;;;;10494568;28;20247;-75
2021/05/18 22:47:07;;;;;;;4.47;3.77;;;;;8.50;101132.00;;;;10510687;28;20556;-75
2021/05/18 22:52:09;;;;;;;6.40;4.23;;;;;8.40;101131.00;;;;10510734;28;20200;-75
2021/05/18 22:57:10;;;;;;;5.23;4.67;;;;;8.40;101131.00;;;;10494759;28;20220;-75
2021/05/18 23:02:13;;;;;;;6.23;4.23;;;;;8.30;101130.00;;;;10510922;28;20598;-75
2021/05/18 23:07:16;;;;;;;5.73;5.20;;;;;8.20;101130.00;;;;10493543;28;20287;-75
2021/05/18 23:12:18;;;;;;;6.63;5.90;;;;;8.20;101126.00;;;;10510415;28;20219;-75
2021/05/18 23:17:22;;;;;;;9.93;6.70;;;;;8.20;101138.00;;;;10527447;28;20251;-75
2021/05/18 23:22:24;;;;;;;8.33;7.50;;;;;8.10;101127.00;;;;10492808;28;20247;-75
2021/05/18 23:27:26;;;;;;;9.33;8.00;;;;;8.10;101118.00;;;;10502030;28;20185;-75
2021/05/18 23:32:28;;;;;;;9.10;8.00;;;;;8.00;101133.00;;;;10483831;28;20239;-74
2021/05/18 23:37:30;;;;;;;11.60;8.87;;;;;8.00;101124.00;;;;10483420;28;20217;-75
2021/05/18 23:42:32;;;;;;;11.73;9.50;;;;;8.00;101125.00;;;;10484240;28;20683;-75
2021/05/18 23:47:34;;;;;;;10.53;9.43;;;;;8.00;101124.00;;;;10509289;28;20189;-75
2021/05/18 23:52:36;;;;;;;11.40;9.90;;;;;8.00;101122.00;;;;10507731;28;20262;-75
2021/05/18 23:57:38;;;;;;;15.73;12.30;;;;;7.90;101115.00;;;;10464503;28;20216;-75
